createdAt,value
2022-11-12T00:05:11.123Z,84.83
2022-11-12T00:10:29.569Z,85.67
2022-11-12T00:15:45.792Z,85.25
2022-11-12T00:21:00.952Z,83.85
2022-11-12T00:26:16.721Z,84.27
2022-11-12T00:31:33.898Z,84.28
2022-11-12T00:36:50.545Z,83.13
2022-11-12T00:42:06.425Z,85.16
2022-11-12T00:47:23.106Z,85.57
2022-11-12T00:52:38.111Z,83.69
2022-11-12T00:57:57.525Z,84.44
2022-11-12T01:03:15.759Z,85.39
2022-11-12T01:08:31.126Z,84.71
2022-11-12T01:13:47.992Z,83.40
2022-11-12T01:19:06.804Z,83.81
2022-11-12T01:24:22.143Z,84.98
2022-11-12T01:29:38.098Z,86.10
2022-11-12T01:34:53.486Z,86.11
2022-11-12T01:40:09.289Z,85.25
2022-11-12T01:45:25.452Z,86.02
2022-11-12T01:50:41.101Z,85.72
2022-11-12T01:55:56.856Z,84.48
2022-11-12T02:01:12.948Z,84.52
2022-11-12T02:06:28.062Z,86.40
2022-11-12T02:11:43.445Z,88.48
2022-11-12T02:17:00.062Z,88.44
2022-11-12T02:22:18.829Z,87.50
2022-11-12T02:27:34.234Z,87.26
2022-11-12T02:32:49.375Z,86.20
2022-11-12T02:38:07.784Z,86.24
2022-11-12T02:43:23.136Z,85.93
2022-11-12T02:48:38.160Z,85.95
2022-11-12T02:53:53.910Z,86.72
2022-11-12T02:59:09.151Z,86.93
2022-11-12T03:04:24.802Z,86.70
2022-11-12T03:09:40.496Z,86.27
2022-11-12T03:14:55.750Z,85.79
2022-11-12T03:20:10.778Z,84.74
2022-11-12T03:25:28.656Z,85.87
2022-11-12T03:30:44.238Z,87.53
2022-11-12T03:36:00.231Z,88.18
2022-11-12T03:41:16.410Z,88.67
2022-11-12T03:46:33.782Z,89.63
2022-11-12T03:51:49.273Z,89.20
2022-11-12T03:57:05.064Z,89.00
2022-11-12T04:02:20.270Z,88.05
2022-11-12T04:07:53.589Z,87.84
2022-11-12T04:13:28.250Z,86.13
2022-11-12T04:19:02.573Z,85.48
2022-11-12T04:24:36.095Z,85.39
2022-11-12T04:30:11.014Z,83.66
2022-11-12T04:35:29.349Z,84.28
2022-11-12T04:41:02.562Z,83.91
2022-11-12T04:46:20.884Z,83.41
2022-11-12T04:51:54.758Z,83.15
2022-11-12T04:57:10.435Z,82.46
2022-11-12T05:02:26.300Z,81.71
2022-11-12T05:07:41.617Z,81.42
2022-11-12T05:12:56.860Z,80.91
2022-11-12T05:18:15.149Z,79.85
2022-11-12T05:23:30.305Z,80.00
2022-11-12T05:28:45.545Z,79.42
2022-11-12T05:34:01.532Z,79.42
2022-11-12T05:39:16.870Z,79.45
2022-11-12T05:44:32.513Z,79.14
2022-11-12T05:49:48.604Z,79.20
2022-11-12T05:55:04.285Z,78.88
2022-11-12T06:00:19.725Z,78.56
2022-11-12T06:05:37.835Z,78.14
2022-11-12T06:10:53.922Z,78.25
2022-11-12T06:16:09.191Z,78.87
2022-11-12T06:21:27.079Z,78.75
2022-11-12T06:26:42.600Z,78.75
2022-11-12T06:31:58.890Z,77.89
2022-11-12T06:37:15.365Z,77.46
2022-11-12T06:42:34.033Z,76.91
2022-11-12T06:47:49.733Z,77.20
2022-11-12T06:53:05.406Z,76.03
2022-11-12T06:58:20.559Z,77.48
2022-11-12T07:03:38.895Z,77.19
2022-11-12T07:08:56.796Z,77.92
2022-11-12T07:14:14.036Z,77.63
2022-11-12T07:19:29.771Z,77.96
2022-11-12T07:24:47.772Z,77.53
2022-11-12T07:30:03.494Z,77.31
2022-11-12T07:35:20.516Z,77.83
2022-11-12T07:40:37.980Z,77.26
2022-11-12T07:45:57.089Z,78.71
2022-11-12T07:51:16.067Z,79.65
2022-11-12T07:56:34.850Z,81.14
2022-11-12T08:01:50.258Z,80.39
2022-11-12T08:07:08.390Z,79.41
2022-11-12T08:12:24.766Z,79.68
2022-11-12T08:17:40.459Z,79.70
2022-11-12T08:22:59.314Z,81.02
2022-11-12T08:28:15.284Z,80.94
2022-11-12T08:33:30.926Z,80.47
2022-11-12T08:38:46.174Z,80.11
2022-11-12T08:44:08.471Z,80.51
2022-11-12T08:49:24.306Z,79.65
2022-11-12T08:54:39.459Z,81.61
2022-11-12T08:59:55.070Z,82.18
2022-11-12T09:05:15.024Z,83.57
2022-11-12T09:10:30.161Z,83.02
2022-11-12T09:15:46.109Z,82.29
2022-11-12T09:21:01.967Z,81.38
2022-11-12T09:26:17.629Z,82.49
2022-11-12T09:31:33.778Z,81.96
2022-11-12T09:36:49.510Z,80.91
2022-11-12T09:42:09.130Z,81.57
2022-11-12T09:47:28.359Z,82.05
2022-11-12T09:52:44.070Z,80.69
2022-11-12T09:57:59.600Z,79.93
2022-11-12T10:03:33.742Z,80.55
2022-11-12T10:08:54.660Z,79.62
2022-11-12T10:14:18.980Z,78.93
2022-11-12T10:19:56.881Z,78.44
2022-11-12T10:25:19.174Z,77.89
2022-11-12T10:30:38.558Z,78.03
2022-11-12T10:35:58.516Z,77.43
2022-11-12T10:41:21.223Z,77.90
2022-11-12T10:46:38.673Z,77.89
2022-11-12T10:51:55.490Z,78.48
2022-11-12T10:57:22.357Z,77.91
2022-11-12T11:02:38.511Z,78.73
2022-11-12T11:07:54.795Z,78.22
2022-11-12T11:13:16.796Z,78.88
2022-11-12T11:18:34.831Z,77.90
2022-11-12T11:23:55.095Z,76.89
2022-11-12T11:29:18.090Z,77.19
2022-11-12T11:34:38.371Z,76.66
2022-11-12T11:39:58.370Z,76.82
2022-11-12T11:45:17.793Z,76.51
2022-11-12T11:50:33.739Z,76.53
2022-11-12T11:55:53.126Z,76.29
2022-11-12T12:01:14.659Z,75.59
2022-11-12T12:06:33.025Z,76.31
2022-11-12T12:11:55.753Z,76.49
2022-11-12T12:17:21.065Z,74.18
2022-11-12T12:22:55.945Z,74.05
2022-11-12T12:28:18.352Z,73.36
2022-11-12T12:33:37.656Z,73.03
2022-11-12T12:39:04.773Z,73.31
2022-11-12T12:44:21.605Z,73.37
2022-11-12T12:49:40.006Z,73.18
2022-11-12T12:54:58.603Z,72.52
2022-11-12T13:00:29.403Z,72.06
2022-11-12T13:05:46.084Z,71.72
2022-11-12T13:11:02.387Z,72.12
2022-11-12T13:16:32.774Z,71.71
2022-11-12T13:22:09.048Z,72.07
2022-11-12T13:27:39.629Z,71.74
2022-11-12T13:33:01.714Z,72.00
2022-11-12T13:38:19.553Z,71.97
2022-11-12T13:43:37.511Z,72.08
2022-11-12T13:48:56.449Z,72.07
2022-11-12T13:54:26.109Z,71.97
2022-11-12T13:59:43.395Z,71.95
2022-11-12T14:04:58.967Z,73.07
2022-11-12T14:10:23.946Z,72.59
2022-11-12T14:15:54.527Z,72.63
2022-11-12T14:21:18.830Z,72.52
2022-11-12T14:26:39.319Z,72.41
2022-11-12T14:32:03.102Z,73.00
2022-11-12T14:37:32.624Z,72.78
2022-11-12T14:42:48.661Z,72.61
2022-11-12T14:48:09.268Z,73.25
2022-11-12T14:53:29.300Z,73.36
2022-11-12T14:58:45.871Z,73.54
2022-11-12T15:04:05.493Z,73.32
2022-11-12T15:09:32.749Z,72.95
2022-11-12T15:14:49.270Z,73.38
2022-11-12T15:20:06.591Z,72.93
2022-11-12T15:25:23.298Z,72.70
2022-11-12T15:30:39.641Z,72.65
2022-11-12T15:35:58.742Z,72.68
2022-11-12T15:41:22.095Z,72.68
2022-11-12T15:46:38.737Z,72.64
2022-11-12T15:51:54.035Z,72.58
2022-11-12T15:57:12.909Z,72.53
2022-11-12T16:02:30.263Z,72.59
2022-11-12T16:07:45.484Z,72.38
2022-11-12T16:13:01.432Z,72.53
2022-11-12T16:18:17.519Z,72.89
2022-11-12T16:23:32.870Z,73.28
2022-11-12T16:28:48.073Z,73.43
2022-11-12T16:34:04.240Z,73.63
2022-11-12T16:39:19.401Z,74.23
2022-11-12T16:44:36.415Z,74.66
2022-11-12T16:49:56.836Z,74.68
2022-11-12T16:55:12.515Z,75.16
2022-11-12T17:00:27.962Z,76.60
2022-11-12T17:05:46.126Z,76.96
2022-11-12T17:11:07.239Z,77.29
2022-11-12T17:16:32.508Z,77.51
2022-11-12T17:21:51.023Z,77.32
2022-11-12T17:27:06.402Z,77.80
2022-11-12T17:32:21.829Z,78.71
2022-11-12T17:37:37.839Z,79.37
2022-11-12T17:42:53.747Z,80.71
2022-11-12T17:48:09.091Z,80.77
2022-11-12T17:53:25.784Z,81.46
2022-11-12T17:58:41.000Z,81.51
2022-11-12T18:03:56.684Z,81.57
2022-11-12T18:09:17.476Z,81.78
2022-11-12T18:14:36.641Z,81.61
2022-11-12T18:19:51.940Z,81.25
2022-11-12T18:25:12.217Z,81.44
2022-11-12T18:30:27.800Z,80.77
2022-11-12T18:35:43.381Z,79.40
2022-11-12T18:41:06.552Z,78.38
2022-11-12T18:46:23.514Z,78.22
2022-11-12T18:51:39.349Z,76.88
2022-11-12T18:56:55.488Z,77.56
2022-11-12T19:02:11.251Z,77.90
2022-11-12T19:07:26.879Z,77.16
2022-11-12T19:12:42.764Z,76.09
2022-11-12T19:17:58.251Z,73.98
2022-11-12T19:23:13.839Z,72.14
2022-11-12T19:28:30.349Z,72.11
2022-11-12T19:33:46.272Z,72.04
2022-11-12T19:39:02.478Z,72.06
2022-11-12T19:44:20.850Z,72.77
2022-11-12T19:49:35.938Z,72.66
2022-11-12T19:54:51.020Z,72.70
2022-11-12T20:00:08.085Z,74.39
2022-11-12T20:05:23.679Z,75.43
2022-11-12T20:10:38.729Z,77.54
2022-11-12T20:15:54.553Z,78.05
2022-11-12T20:21:10.135Z,78.13
2022-11-12T20:26:26.184Z,78.13
2022-11-12T20:31:43.169Z,77.64
2022-11-12T20:37:01.712Z,77.20
2022-11-12T20:42:17.310Z,77.35
2022-11-12T20:47:33.306Z,76.89
2022-11-12T20:52:48.431Z,77.06
2022-11-12T20:58:06.672Z,76.34
2022-11-12T21:03:22.792Z,76.39
2022-11-12T21:08:38.499Z,75.67
2022-11-12T21:13:53.866Z,75.38
2022-11-12T21:19:09.661Z,75.65
2022-11-12T21:24:56.061Z,75.61
2022-11-12T21:30:11.255Z,75.25
2022-11-12T21:35:31.578Z,75.05
2022-11-12T21:40:49.264Z,75.88
2022-11-12T21:46:07.117Z,75.82
2022-11-12T21:51:24.660Z,76.48
2022-11-12T21:56:43.454Z,78.45
2022-11-12T22:02:00.724Z,79.92
2022-11-12T22:07:16.918Z,81.40
2022-11-12T22:12:32.277Z,83.29
2022-11-12T22:17:47.727Z,83.32
2022-11-12T22:23:03.781Z,84.99
2022-11-12T22:28:18.812Z,87.35
2022-11-12T22:33:34.417Z,89.12
2022-11-12T22:38:51.483Z,90.24
2022-11-12T22:44:06.990Z,90.19
2022-11-12T22:49:22.387Z,90.12
2022-11-12T22:54:38.118Z,88.88
2022-11-12T22:59:53.523Z,89.18
2022-11-12T23:05:08.669Z,88.95
2022-11-12T23:10:31.476Z,87.91
2022-11-12T23:15:50.038Z,85.66
2022-11-12T23:21:06.746Z,83.08
2022-11-12T23:26:26.860Z,82.04
2022-11-12T23:31:42.277Z,80.63
2022-11-12T23:36:57.350Z,77.80
2022-11-12T23:42:13.510Z,77.25
2022-11-12T23:47:28.920Z,78.41
2022-11-12T23:52:44.370Z,78.40
2022-11-12T23:58:00.050Z,77.73
